Time;durP1;ratioP1;P1;durP2;ratioP2;P2;SDS_P1;SDS_P2;PMS_P1;PMS_P2;Temp;Humidity;BMP_temperature;BMP_pressure;BME280_temperature;BME280_humidity;BME280_pressure;Samples;Min_cycle;Max_cycle;Signal;HPM_P1;HPM_P2
2022/01/01 00:00:27;;;;;;;1999.90;999.90;;;;;;;11.46;100.00;165456.31;5048157;28;20041;-67
2022/01/01 00:02:55;;;;;;;1999.90;999.90;;;;;;;11.38;100.00;165434.28;5049545;28;20084;-66
2022/01/01 00:05:23;;;;;;;1999.90;999.90;;;;;;;11.31;100.00;165416.34;5048342;28;20136;-66
2022/01/01 00:07:49;;;;;;;1999.90;999.90;;;;;;;11.27;100.00;165405.38;5047393;28;20119;-67
2022/01/01 00:10:18;;;;;;;1999.90;999.90;;;;;;;11.08;100.00;165354.38;5048565;28;20088;-67
2022/01/01 00:12:46;;;;;;;1999.90;999.90;;;;;;;10.98;100.00;165328.19;5048346;28;20057;-67
2022/01/01 00:15:15;;;;;;;1999.90;999.90;;;;;;;10.87;100.00;165299.28;5047672;28;20052;-67
2022/01/01 00:17:43;;;;;;;1999.90;999.90;;;;;;;10.95;100.00;165319.91;5048991;28;20643;-67
2022/01/01 00:20:11;;;;;;;1999.90;999.90;;;;;;;11.04;100.00;165343.34;5048965;28;20129;-67
2022/01/01 00:22:39;;;;;;;1999.90;999.90;;;;;;;11.23;100.00;165394.34;5048056;28;20080;-67
2022/01/01 00:25:07;;;;;;;1999.90;999.90;;;;;;;11.03;100.00;165340.56;5048556;28;20092;-68
2022/01/01 00:27:33;;;;;;;1999.90;999.90;;;;;;;11.33;100.00;165421.88;5048199;28;20049;-67
2022/01/01 00:30:00;;;;;;;1999.90;999.90;;;;;;;11.19;100.00;165384.66;5046291;28;20110;-67
2022/01/01 00:32:27;;;;;;;1999.90;999.90;;;;;;;11.60;100.00;165493.53;5048429;28;20103;-67
2022/01/01 00:34:53;;;;;;;1999.90;999.90;;;;;;;11.59;100.00;165492.13;5049040;28;20107;-67
2022/01/01 00:37:20;;;;;;;1999.90;999.90;;;;;;;11.37;100.00;165432.94;5046161;28;20138;-67
2022/01/01 00:39:46;;;;;;;1999.90;999.90;;;;;;;11.51;100.00;165470.13;5048058;28;20087;-67
2022/01/01 00:42:13;;;;;;;1999.90;999.90;;;;;;;11.85;100.00;165561.06;5048834;28;20047;-67
2022/01/01 00:44:40;;;;;;;1999.90;999.90;;;;;;;11.99;100.00;165598.31;5030084;28;20053;-67
2022/01/01 00:47:06;;;;;;;1999.90;999.90;;;;;;;11.76;100.00;165536.22;5048145;28;20412;-67
2022/01/01 00:49:33;;;;;;;1999.90;999.90;;;;;;;11.96;100.00;165591.41;5049158;28;20079;-67
2022/01/01 00:52:00;;;;;;;1999.90;999.90;;;;;;;11.87;100.00;165566.56;5047475;28;20045;-67
2022/01/01 00:54:27;;;;;;;1999.90;999.90;;;;;;;11.76;100.00;165537.66;5047826;28;20072;-67
2022/01/01 00:56:54;;;;;;;1999.90;999.90;;;;;;;12.00;100.00;165599.69;5048984;28;20057;-67
2022/01/01 00:59:21;;;;;;;1999.90;999.90;;;;;;;11.83;100.00;165555.53;5047065;28;20134;-67
2022/01/01 01:01:47;;;;;;;1999.90;999.90;;;;;;;11.72;100.00;165526.59;5038173;28;20380;-67
2022/01/01 01:04:14;;;;;;;1999.90;999.90;;;;;;;11.53;100.00;165475.59;5048896;28;20052;-67
2022/01/01 01:06:40;;;;;;;1999.90;999.90;;;;;;;11.49;100.00;165463.22;5047611;28;20084;-67
2022/01/01 01:09:07;;;;;;;1999.90;999.90;;;;;;;11.14;100.00;165370.91;5047690;28;20146;-67
2022/01/01 01:11:41;;;;;;;1999.90;999.90;;;;;;;11.23;100.00;165394.34;5049104;28;20110;-70
2022/01/01 01:14:10;;;;;;;1999.90;999.90;;;;;;;11.27;100.00;165406.72;5046428;28;20049;-67
2022/01/01 01:16:37;;;;;;;1999.90;999.90;;;;;;;11.03;100.00;165341.97;5047844;28;20115;-67
2022/01/01 01:19:03;;;;;;;1999.90;999.90;;;;;;;10.93;100.00;165315.78;5048819;28;20088;-67
2022/01/01 01:21:30;;;;;;;1999.90;999.90;;;;;;;11.13;100.00;165366.78;5048887;28;20056;-67
2022/01/01 01:23:56;;;;;;;1999.90;999.90;;;;;;;11.30;100.00;165412.22;5051065;28;20045;-69
2022/01/01 01:26:23;;;;;;;1999.90;999.90;;;;;;;11.49;100.00;165463.22;5051344;28;20080;-66
2022/01/01 01:28:51;;;;;;;1999.90;999.90;;;;;;;11.28;100.00;165409.50;5051276;28;20045;-66
2022/01/01 01:31:18;;;;;;;1999.90;999.90;;;;;;;11.20;100.00;165386.06;5050958;28;20106;-67
2022/01/01 01:33:45;;;;;;;1999.90;999.90;;;;;;;11.34;100.00;165423.25;5052090;28;20461;-66
2022/01/01 01:36:13;;;;;;;1999.90;999.90;;;;;;;11.53;100.00;165475.59;5051551;28;20135;-67
2022/01/01 01:38:39;;;;;;;1999.90;999.90;;;;;;;11.33;100.00;165420.47;5050421;28;20463;-67
2022/01/01 01:41:08;;;;;;;1999.90;999.90;;;;;;;11.38;100.00;165434.28;5052082;28;20037;-67
2022/01/01 01:43:35;;;;;;;1999.90;999.90;;;;;;;11.28;100.00;165408.09;5051457;28;20138;-66
2022/01/01 01:46:04;;;;;;;1999.90;999.90;;;;;;;11.56;100.00;165483.88;5050677;28;20052;-67
2022/01/01 01:48:35;;;;;;;1999.90;999.90;;;;;;;11.59;100.00;165492.13;5051502;28;20048;-66
2022/01/01 01:51:02;;;;;;;1999.90;999.90;;;;;;;11.77;100.00;165539.00;5050315;28;20080;-67
2022/01/01 01:53:29;;;;;;;1999.90;999.90;;;;;;;11.46;100.00;165456.31;5050405;28;20138;-67
2022/01/01 01:55:58;;;;;;;1999.90;999.90;;;;;;;11.46;100.00;165456.31;5044358;28;20551;-67
2022/01/01 01:58:25;;;;;;;1999.90;999.90;;;;;;;11.26;100.00;165403.94;5050927;28;20045;-66
2022/01/01 02:03:33;;;;;;;1999.90;999.90;;;;;;;11.28;100.00;165408.09;5051321;28;20052;-67
2022/01/01 02:06:00;;;;;;;1999.90;999.90;;;;;;;11.34;100.00;165423.25;5051826;28;20427;-67
2022/01/01 02:08:28;;;;;;;1999.90;999.90;;;;;;;11.62;100.00;165500.41;5049729;28;20138;-66
2022/01/01 02:10:55;;;;;;;1999.90;999.90;;;;;;;11.66;100.00;165508.72;5050655;28;20060;-66
2022/01/01 02:16:31;;;;;;;1999.90;999.90;;;;;;;11.74;100.00;165530.75;5036339;28;20280;-67
2022/01/01 02:18:58;;;;;;;1999.90;999.90;;;;;;;11.62;100.00;165500.41;5049511;28;20052;-66
2022/01/01 02:21:29;;;;;;;1999.90;999.90;;;;;;;11.50;100.00;165467.34;5050621;28;20049;-67
2022/01/01 02:23:59;;;;;;;1999.90;999.90;;;;;;;11.51;100.00;165470.13;5050686;28;20103;-66
2022/01/01 02:26:32;;;;;;;1999.90;999.90;;;;;;;11.65;100.00;165507.31;5049944;28;20110;-67
2022/01/01 02:29:00;;;;;;;1999.90;999.90;;;;;;;11.75;100.00;165533.50;5049649;28;20049;-66
2022/01/01 02:31:26;;;;;;;1999.90;999.90;;;;;;;11.74;100.00;165532.09;5051449;28;20455;-66
2022/01/01 02:33:53;;;;;;;1999.90;999.90;;;;;;;12.06;100.00;165616.22;5049737;28;20342;-66
2022/01/01 02:36:31;;;;;;;1999.90;999.90;;;;;;;11.94;100.00;165585.94;5049651;28;20041;-66
2022/01/01 02:38:58;;;;;;;1999.90;999.90;;;;;;;11.96;100.00;165590.06;5050825;28;20077;-66
2022/01/01 02:41:26;;;;;;;1999.90;999.90;;;;;;;11.83;100.00;165555.53;5049953;28;20045;-66
2022/01/01 02:43:53;;;;;;;1999.90;999.90;;;;;;;11.71;100.00;165522.47;5049325;28;20114;-67
2022/01/01 02:46:20;;;;;;;1999.90;999.90;;;;;;;11.69;100.00;165516.97;5051262;28;20055;-66
2022/01/01 02:48:47;;;;;;;1999.90;999.90;;;;;;;11.69;100.00;165516.97;5049523;28;20048;-67
2022/01/01 02:51:14;;;;;;;1999.90;999.90;;;;;;;11.97;100.00;165594.19;5049424;28;20048;-67
2022/01/01 02:53:41;;;;;;;1999.90;999.90;;;;;;;11.91;100.00;165577.63;5044865;28;20425;-67
2022/01/01 02:56:07;;;;;;;1999.90;999.90;;;;;;;11.54;100.00;165478.38;5048844;28;20134;-67
2022/01/01 02:58:34;;;;;;;1999.90;999.90;;;;;;;11.84;100.00;165556.94;5029535;28;20069;-67
2022/01/01 03:01:00;;;;;;;1999.90;999.90;;;;;;;12.04;100.00;165610.72;5050256;28;20108;-67
2022/01/01 03:03:27;;;;;;;1999.90;999.90;;;;;;;11.60;100.00;165493.53;5049682;28;20056;-67
2022/01/01 03:05:53;;;;;;;1999.90;999.90;;;;;;;11.35;100.00;165427.38;5049005;28;20119;-67
2022/01/01 03:08:20;;;;;;;1999.90;999.90;;;;;;;11.40;100.00;165441.19;5050449;28;20119;-67
2022/01/01 03:10:47;;;;;;;1999.90;999.90;;;;;;;11.08;100.00;165355.75;5049660;28;20075;-67
2022/01/01 03:13:14;;;;;;;1999.90;999.90;;;;;;;10.75;100.00;165267.59;5049333;28;20064;-66
2022/01/01 03:15:40;;;;;;;1999.90;999.90;;;;;;;10.60;100.00;165226.28;5050131;28;20411;-67
2022/01/01 03:18:07;;;;;;;1999.90;999.90;;;;;;;10.86;100.00;165295.13;5049603;28;20508;-66
2022/01/01 03:20:33;;;;;;;1999.90;999.90;;;;;;;10.83;100.00;165288.25;5048544;28;20056;-67
2022/01/01 03:23:00;;;;;;;1999.90;999.90;;;;;;;10.67;100.00;165244.16;5050216;28;20380;-67
2022/01/01 03:25:26;;;;;;;1999.90;999.90;;;;;;;10.75;100.00;165267.59;5049758;28;20118;-66
2022/01/01 03:27:53;;;;;;;1999.90;999.90;;;;;;;11.09;100.00;165358.50;5048669;28;20072;-67
2022/01/01 03:30:20;;;;;;;1999.90;999.90;;;;;;;11.20;100.00;165387.44;5050113;28;20130;-67
2022/01/01 03:32:46;;;;;;;1999.90;999.90;;;;;;;11.13;100.00;165368.13;5048486;28;20053;-67
2022/01/01 03:35:13;;;;;;;1999.90;999.90;;;;;;;11.12;100.00;165365.41;5048475;28;20212;-67
2022/01/01 03:37:40;;;;;;;1999.90;999.90;;;;;;;11.00;100.00;165332.31;5049458;28;20525;-67
2022/01/01 03:40:07;;;;;;;1999.90;999.90;;;;;;;11.00;100.00;165332.31;5050073;28;20056;-67
2022/01/01 03:42:34;;;;;;;1999.90;999.90;;;;;;;10.88;100.00;165302.03;5047858;28;20045;-67
2022/01/01 03:45:00;;;;;;;1999.90;999.90;;;;;;;11.19;100.00;165384.66;5048318;28;20052;-66
2022/01/01 03:47:28;;;;;;;1999.90;999.90;;;;;;;11.10;100.00;165361.28;5049700;28;20052;-67
2022/01/01 03:49:54;;;;;;;1999.90;999.90;;;;;;;11.49;100.00;165463.22;5048547;28;20094;-67
2022/01/01 03:52:21;;;;;;;1999.90;999.90;;;;;;;11.41;100.00;165443.91;5049330;28;20077;-67
2022/01/01 03:54:47;;;;;;;1999.90;999.90;;;;;;;11.32;100.00;165419.13;5049356;28;20091;-67
2022/01/01 03:57:14;;;;;;;1999.90;999.90;;;;;;;11.54;100.00;165478.38;5048340;28;20072;-67
2022/01/01 03:59:40;;;;;;;1999.90;999.90;;;;;;;11.49;100.00;165464.56;5047478;28;20049;-67
2022/01/01 04:02:07;;;;;;;1999.90;999.90;;;;;;;11.18;100.00;165380.53;5049360;28;20077;-67
2022/01/01 04:04:33;;;;;;;1999.90;999.90;;;;;;;11.26;100.00;165402.59;5048055;28;20051;-67
2022/01/01 04:07:02;;;;;;;1999.90;999.90;;;;;;;11.13;100.00;165368.13;5049009;28;20425;-67
2022/01/01 04:09:28;;;;;;;1999.90;999.90;;;;;;;10.75;100.00;165267.59;5049601;28;20056;-67
2022/01/01 04:11:55;;;;;;;1999.90;999.90;;;;;;;10.76;100.00;165268.94;5047743;28;20072;-67
2022/01/01 04:14:21;;;;;;;1999.90;999.90;;;;;;;10.99;100.00;165329.59;5050292;28;20409;-67
2022/01/01 04:16:51;;;;;;;1999.90;999.90;;;;;;;11.25;100.00;165401.22;5049543;28;20223;-67
2022/01/01 04:19:18;;;;;;;1999.90;999.90;;;;;;;11.27;100.00;165406.72;5046000;28;20053;-67
2022/01/01 04:21:44;;;;;;;1999.90;999.90;;;;;;;11.25;100.00;165399.81;5047384;28;20389;-67
2022/01/01 04:24:11;;;;;;;1999.90;999.90;;;;;;;11.26;100.00;165402.59;5050092;28;20150;-67
2022/01/01 04:26:37;;;;;;;1999.90;999.90;;;;;;;10.92;100.00;165313.00;5048068;28;20107;-67
2022/01/01 04:29:04;;;;;;;1999.90;999.90;;;;;;;10.96;100.00;165321.34;5047505;28;20052;-67
2022/01/01 04:31:31;;;;;;;1999.90;999.90;;;;;;;10.84;100.00;165291.00;5049855;28;20088;-67
2022/01/01 04:33:58;;;;;;;1999.90;999.90;;;;;;;10.71;100.00;165255.19;5047574;28;20148;-67
2022/01/01 04:36:25;;;;;;;1999.90;999.90;;;;;;;10.63;100.00;165234.53;5048306;28;20099;-67
2022/01/01 04:38:51;;;;;;;1999.90;999.90;;;;;;;10.68;100.00;165248.28;5049525;28;20082;-67
2022/01/01 04:41:18;;;;;;;1999.90;999.90;;;;;;;11.00;100.00;165333.72;5047843;28;20048;-67
2022/01/01 04:43:46;;;;;;;1999.90;999.90;;;;;;;11.06;100.00;165350.25;5048340;28;20072;-67
2022/01/01 04:46:13;;;;;;;1999.90;999.90;;;;;;;10.94;100.00;165317.16;5048736;28;20080;-67
2022/01/01 04:48:40;;;;;;;1999.90;999.90;;;;;;;10.84;100.00;165291.00;5048065;28;20037;-67
2022/01/01 04:51:08;;;;;;;1999.90;999.90;;;;;;;10.85;100.00;165293.78;5048031;28;20064;-67
2022/01/01 04:53:35;;;;;;;1999.90;999.90;;;;;;;10.91;100.00;165308.88;5049242;28;20334;-67
2022/01/01 04:56:04;;;;;;;1999.90;999.90;;;;;;;11.12;100.00;165365.41;5051231;28;20106;-67
2022/01/01 04:58:30;;;;;;;1999.90;999.90;;;;;;;11.13;100.00;165366.78;5051756;28;20067;-67
2022/01/01 05:00:57;;;;;;;1999.90;999.90;;;;;;;11.06;100.00;165350.25;5056888;28;20053;-67
2022/01/01 05:03:23;;;;;;;1999.90;999.90;;;;;;;11.17;100.00;165377.81;5052507;28;20076;-67
2022/01/01 05:05:50;;;;;;;1999.90;999.90;;;;;;;11.33;100.00;165420.47;5051482;28;20098;-67
2022/01/01 05:08:16;;;;;;;1999.90;999.90;;;;;;;11.12;100.00;165364.00;5050821;28;20081;-67
2022/01/01 05:10:43;;;;;;;1999.90;999.90;;;;;;;10.84;100.00;165289.66;5051051;28;20073;-67
2022/01/01 05:13:09;;;;;;;1999.90;999.90;;;;;;;10.77;100.00;165271.72;5051602;28;20065;-67
2022/01/01 05:15:36;;;;;;;1999.90;999.90;;;;;;;10.59;100.00;165222.16;5052230;28;20110;-69
2022/01/01 05:18:03;;;;;;;1999.90;999.90;;;;;;;10.45;100.00;165184.94;5052469;28;20229;-66
2022/01/01 05:20:29;;;;;;;1999.90;999.90;;;;;;;10.49;100.00;165197.31;5050979;28;20389;-67
2022/01/01 05:22:56;;;;;;;1999.90;999.90;;;;;;;10.52;100.00;165204.22;5052470;28;20085;-67
2022/01/01 05:25:22;;;;;;;1999.90;999.90;;;;;;;10.51;100.00;165201.47;5051881;28;20406;-68
2022/01/01 05:27:49;;;;;;;1999.90;999.90;;;;;;;10.78;100.00;165273.06;5051219;28;20151;-67
2022/01/01 05:30:15;;;;;;;1999.90;999.90;;;;;;;10.69;100.00;165249.72;5051914;28;20049;-67
2022/01/01 05:32:42;;;;;;;1999.90;999.90;;;;;;;10.77;100.00;165270.34;5052354;28;20085;-67
2022/01/01 05:35:09;;;;;;;1999.90;999.90;;;;;;;10.88;100.00;165302.03;5050872;28;20084;-67
2022/01/01 05:37:35;;;;;;;1999.90;999.90;;;;;;;10.88;100.00;165302.03;5051573;28;20467;-67
2022/01/01 05:40:03;;;;;;;1999.90;999.90;;;;;;;10.57;100.00;165219.38;5051932;28;20324;-67
2022/01/01 05:42:29;;;;;;;1999.90;999.90;;;;;;;10.53;100.00;165208.34;5050700;28;20068;-67
2022/01/01 05:44:56;;;;;;;1999.90;999.90;;;;;;;10.67;100.00;165244.16;5052000;28;20088;-67
2022/01/01 05:47:23;;;;;;;1999.90;999.90;;;;;;;10.70;100.00;165253.84;5052125;28;20049;-67
2022/01/01 05:49:49;;;;;;;1999.90;999.90;;;;;;;10.35;100.00;165160.16;5050342;28;20083;-67
2022/01/01 05:52:16;;;;;;;1999.90;999.90;;;;;;;10.67;100.00;165245.53;5051408;28;20044;-67
2022/01/01 05:54:42;;;;;;;1999.90;999.90;;;;;;;10.49;100.00;165197.31;5051939;28;20076;-67
2022/01/01 05:57:09;;;;;;;1999.90;999.90;;;;;;;10.48;100.00;165193.19;5050362;28;20085;-67
2022/01/01 05:59:40;;;;;;;1999.90;999.90;;;;;;;10.54;100.00;165211.13;5051257;28;20072;-67
2022/01/01 06:02:06;;;;;;;1999.90;999.90;;;;;;;10.43;100.00;165180.81;5051966;28;20056;-67
2022/01/01 06:04:33;;;;;;;1999.90;999.90;;;;;;;10.40;100.00;165172.56;5050236;28;20040;-67
2022/01/01 06:07:00;;;;;;;1999.90;999.90;;;;;;;10.68;100.00;165246.94;5050336;28;20080;-67
2022/01/01 06:09:26;;;;;;;1999.90;999.90;;;;;;;10.81;100.00;165282.75;5050761;28;20057;-67
2022/01/01 06:11:53;;;;;;;1999.90;999.90;;;;;;;10.73;100.00;165260.69;5049988;28;20080;-67
2022/01/01 06:14:21;;;;;;;1999.90;999.90;;;;;;;10.70;100.00;165253.84;5054058;28;20102;-67
2022/01/01 06:16:48;;;;;;;1999.90;999.90;;;;;;;10.74;100.00;165264.81;5050635;28;20045;-67
2022/01/01 06:19:15;;;;;;;1999.90;999.90;;;;;;;10.32;100.00;165151.84;5050173;28;20194;-67
2022/01/01 06:21:41;;;;;;;1999.90;999.90;;;;;;;10.21;100.00;165121.53;5050320;28;20080;-67
2022/01/01 06:24:08;;;;;;;1999.90;999.90;;;;;;;10.35;100.00;165160.16;5051744;28;20057;-67
2022/01/01 06:26:37;;;;;;;1999.90;999.90;;;;;;;10.40;100.00;165172.56;5049387;28;20057;-67
2022/01/01 06:29:04;;;;;;;1999.90;999.90;;;;;;;10.33;100.00;165153.22;5049899;28;20110;-67
2022/01/01 06:31:31;;;;;;;1999.90;999.90;;;;;;;10.43;100.00;165180.81;5044240;28;20053;-68
2022/01/01 06:33:57;;;;;;;1999.90;999.90;;;;;;;10.65;100.00;165238.69;5049201;28;20057;-68
2022/01/01 06:36:26;;;;;;;1999.90;999.90;;;;;;;10.55;100.00;165213.91;5047164;28;20136;-68
2022/01/01 06:38:53;;;;;;;1999.90;999.90;;;;;;;10.41;100.00;165175.31;5050081;28;20092;-68
2022/01/01 06:41:20;;;;;;;1999.90;999.90;;;;;;;10.83;100.00;165288.25;5049736;28;20052;-68
2022/01/01 06:43:47;;;;;;;1999.90;999.90;;;;;;;10.78;100.00;165274.50;5050110;28;20524;-68
2022/01/01 06:46:13;;;;;;;1999.90;999.90;;;;;;;10.71;100.00;165255.19;5045597;28;20107;-68
2022/01/01 06:48:40;;;;;;;1999.90;999.90;;;;;;;10.51;100.00;165202.88;5043918;28;20044;-67
2022/01/01 06:51:06;;;;;;;1999.90;999.90;;;;;;;10.53;100.00;165208.34;5049964;28;20320;-67
2022/01/01 06:53:33;;;;;;;1999.90;999.90;;;;;;;10.67;100.00;165245.53;5051077;28;20077;-67
2022/01/01 06:56:05;;;;;;;1999.90;999.90;;;;;;;10.90;100.00;165306.16;5048926;28;20075;-67
2022/01/01 06:58:33;;;;;;;1999.90;999.90;;;;;;;11.02;100.00;165339.22;5050495;28;20441;-68
2022/01/01 07:01:00;;;;;;;1999.90;999.90;;;;;;;11.25;100.00;165401.22;5050674;28;20044;-68
2022/01/01 07:03:27;;;;;;;1999.90;999.90;;;;;;;11.22;100.00;165392.91;5048696;28;20052;-68
2022/01/01 07:05:53;;;;;;;1999.90;999.90;;;;;;;11.20;100.00;165387.44;5051789;28;20049;-68
2022/01/01 07:08:20;;;;;;;1999.90;999.90;;;;;;;10.86;100.00;165296.50;5048908;28;20509;-68
2022/01/01 07:10:47;;;;;;;1999.90;999.90;;;;;;;10.98;100.00;165328.19;5049634;28;20044;-68
2022/01/01 07:13:15;;;;;;;1999.90;999.90;;;;;;;10.97;100.00;165324.03;5050302;28;20304;-67
2022/01/01 07:15:42;;;;;;;1999.90;999.90;;;;;;;11.19;100.00;165384.66;5048514;28;20188;-68
2022/01/01 07:18:09;;;;;;;1999.90;999.90;;;;;;;11.26;100.00;165402.59;5048686;28;20122;-68
2022/01/01 07:20:36;;;;;;;1999.90;999.90;;;;;;;11.19;100.00;165383.28;5050510;28;20118;-68
2022/01/01 07:23:03;;;;;;;1999.90;999.90;;;;;;;11.01;100.00;165335.09;5048040;28;20091;-68
2022/01/01 07:25:30;;;;;;;1999.90;999.90;;;;;;;11.37;100.00;165431.50;5049658;28;20324;-68
2022/01/01 07:27:56;;;;;;;1999.90;999.90;;;;;;;11.40;100.00;165439.78;5049895;28;20084;-68
2022/01/01 07:30:23;;;;;;;1999.90;999.90;;;;;;;11.07;100.00;165352.97;5047257;28;20460;-68
2022/01/01 07:32:50;;;;;;;1999.90;999.90;;;;;;;10.86;100.00;165295.13;5050207;28;20071;-68
2022/01/01 07:35:18;;;;;;;1999.90;999.90;;;;;;;11.07;100.00;165351.59;5048650;28;20103;-68
2022/01/01 07:37:45;;;;;;;1999.90;999.90;;;;;;;10.81;100.00;165282.75;5048562;28;20499;-68
2022/01/01 07:40:14;;;;;;;1999.90;999.90;;;;;;;10.60;100.00;165224.88;5048831;28;20106;-68
2022/01/01 07:42:42;;;;;;;1999.90;999.90;;;;;;;10.71;100.00;165255.19;5048706;28;20486;-68
2022/01/01 07:45:10;;;;;;;1999.90;999.90;;;;;;;10.89;100.00;165304.75;5048680;28;20053;-68
2022/01/01 07:47:37;;;;;;;1999.90;999.90;;;;;;;10.89;100.00;165303.41;5049513;28;20302;-68
2022/01/01 07:50:05;;;;;;;1999.90;999.90;;;;;;;10.95;100.00;165318.56;5047721;28;20107;-68
2022/01/01 07:52:32;;;;;;;1999.90;999.90;;;;;;;10.90;100.00;165307.53;5048880;28;20068;-68
2022/01/01 07:54:59;;;;;;;1999.90;999.90;;;;;;;10.88;100.00;165302.03;5049297;28;20084;-68
2022/01/01 07:57:27;;;;;;;1999.90;999.90;;;;;;;10.60;100.00;165226.28;5048150;28;20342;-68
2022/01/01 07:59:54;;;;;;;1999.90;999.90;;;;;;;10.57;100.00;165219.38;5047802;28;20045;-68
2022/01/01 08:02:20;;;;;;;1999.90;999.90;;;;;;;10.56;100.00;165215.25;5049222;28;20053;-68
2022/01/01 08:04:47;;;;;;;1999.90;999.90;;;;;;;10.65;100.00;165240.03;5047553;28;20052;-68
2022/01/01 08:07:14;;;;;;;1999.90;999.90;;;;;;;10.73;100.00;165260.69;5049429;28;20088;-68
2022/01/01 08:10:00;;;;;;;1999.90;999.90;;;;;;;10.52;100.00;165205.59;5048080;28;20049;-68
2022/01/01 08:12:27;;;;;;;1999.90;999.90;;;;;;;10.47;100.00;165190.47;5047444;28;20049;-68
2022/01/01 08:14:56;;;;;;;1999.90;999.90;;;;;;;10.64;100.00;165237.25;5048413;28;20118;-68
2022/01/01 08:17:24;;;;;;;1999.90;999.90;;;;;;;10.71;100.00;165255.19;5047585;28;20049;-68
2022/01/01 08:19:51;;;;;;;1999.90;999.90;;;;;;;10.47;100.00;165190.47;5047931;28;20072;-68
2022/01/01 08:22:18;;;;;;;1999.90;999.90;;;;;;;10.80;100.00;165279.97;5049358;28;20060;-68
2022/01/01 08:24:46;;;;;;;1999.90;999.90;;;;;;;11.33;100.00;165420.47;5046003;28;20076;-69
2022/01/01 08:27:12;;;;;;;1999.90;999.90;;;;;;;11.33;100.00;165420.47;5047934;28;20495;-69
2022/01/01 08:29:39;;;;;;;1999.90;999.90;;;;;;;11.11;100.00;165362.66;5048985;28;20048;-70
2022/01/01 08:32:06;;;;;;;1999.90;999.90;;;;;;;10.93;100.00;165315.78;5046034;28;20076;-69
2022/01/01 08:34:33;;;;;;;1999.90;999.90;;;;;;;10.61;100.00;165227.66;5048609;28;20072;-69
2022/01/01 08:36:59;;;;;;;1999.90;999.90;;;;;;;10.79;100.00;165277.22;5048422;28;20120;-69
2022/01/01 08:39:26;;;;;;;1999.90;999.90;;;;;;;10.64;100.00;165235.91;5030247;28;20083;-69
2022/01/01 08:41:52;;;;;;;1999.90;999.90;;;;;;;10.59;100.00;165222.16;5049317;28;20111;-69
2022/01/01 08:44:19;;;;;;;1999.90;999.90;;;;;;;11.00;100.00;165332.31;5047141;28;20083;-69
2022/01/01 08:46:46;;;;;;;1999.90;999.90;;;;;;;10.71;100.00;165256.56;5050387;28;20049;-69
2022/01/01 08:49:12;;;;;;;1999.90;999.90;;;;;;;11.11;100.00;165362.66;5047864;28;20049;-69
2022/01/01 08:51:43;;;;;;;1999.90;999.90;;;;;;;11.39;100.00;165437.06;5047884;28;20331;-69
2022/01/01 08:54:12;;;;;;;1999.90;999.90;;;;;;;11.06;100.00;165348.84;5047276;28;20087;-69
2022/01/01 08:56:39;;;;;;;1999.90;999.90;;;;;;;11.22;100.00;165391.56;5049335;28;20103;-69
2022/01/01 08:59:06;;;;;;;1999.90;999.90;;;;;;;11.36;100.00;165430.16;5046894;28;20088;-69
2022/01/01 09:01:32;;;;;;;1999.90;999.90;;;;;;;11.47;100.00;165459.06;5047895;28;20084;-69
2022/01/01 09:03:59;;;;;;;1999.90;999.90;;;;;;;11.92;100.00;165580.34;5048282;28;20045;-69
2022/01/01 09:06:26;;;;;;;1999.90;999.90;;;;;;;11.75;100.00;165534.88;5046989;28;20048;-69
2022/01/01 09:08:52;;;;;;;1999.90;999.90;;;;;;;11.84;100.00;165556.94;5048508;28;20057;-69
2022/01/01 09:11:19;;;;;;;1999.90;999.90;;;;;;;11.96;100.00;165590.06;5048285;28;20048;-69
2022/01/01 09:13:45;;;;;;;1999.90;999.90;;;;;;;11.81;100.00;165550.03;5047039;28;20040;-69
2022/01/01 09:16:15;;;;;;;1999.90;999.90;;;;;;;11.80;100.00;165548.69;5047036;28;20114;-69
2022/01/01 09:18:43;;;;;;;1999.90;999.90;;;;;;;11.92;100.00;165578.97;5047284;28;20048;-69
2022/01/01 09:21:11;;;;;;;1999.90;999.90;;;;;;;12.03;100.00;165607.97;5047291;28;20406;-69
2022/01/01 09:23:39;;;;;;;1999.90;999.90;;;;;;;11.90;100.00;165573.47;5048137;28;20045;-69
2022/01/01 09:26:06;;;;;;;1999.90;999.90;;;;;;;11.99;100.00;165598.31;5046623;28;20049;-69
2022/01/01 09:28:33;;;;;;;1999.90;999.90;;;;;;;11.82;100.00;165552.81;5048091;28;20442;-69
2022/01/01 09:31:01;;;;;;;1999.90;999.90;;;;;;;11.68;100.00;165514.22;5048577;28;20078;-69
2022/01/01 09:33:29;;;;;;;1999.90;999.90;;;;;;;11.85;100.00;165561.06;5046853;28;20437;-69
2022/01/01 09:36:02;;;;;;;1999.90;999.90;;;;;;;11.90;100.00;165574.84;5047614;28;20045;-69
2022/01/01 09:38:30;;;;;;;1999.90;999.90;;;;;;;11.70;100.00;165519.69;5048484;28;20076;-69
2022/01/01 09:40:58;;;;;;;1999.90;999.90;;;;;;;11.73;100.00;165527.97;5046498;28;20446;-69
2022/01/01 09:43:29;;;;;;;1999.90;999.90;;;;;;;11.91;100.00;165577.63;5051276;28;20319;-69
2022/01/01 09:45:58;;;;;;;1999.90;999.90;;;;;;;11.94;100.00;165585.94;5052273;28;20084;-69
2022/01/01 09:48:26;;;;;;;1999.90;999.90;;;;;;;12.27;100.00;165672.78;5050541;28;20052;-69
2022/01/01 09:50:57;;;;;;;1999.90;999.90;;;;;;;12.03;100.00;165607.97;5050515;28;20064;-69
2022/01/01 09:53:26;;;;;;;1999.90;999.90;;;;;;;11.65;100.00;165507.31;5050780;28;20122;-69
2022/01/01 09:55:54;;;;;;;1999.90;999.90;;;;;;;11.66;100.00;165508.72;5051001;28;20079;-69
2022/01/01 09:58:25;;;;;;;1999.90;999.90;;;;;;;11.85;100.00;165561.06;5050727;28;20396;-69
2022/01/01 10:00:52;;;;;;;1999.90;999.90;;;;;;;11.47;100.00;165459.06;5051138;28;20099;-68
2022/01/01 10:03:32;;;;;;;1999.90;999.90;;;;;;;11.44;100.00;165450.81;5051077;28;20115;-68
2022/01/01 10:06:02;;;;;;;1999.90;999.90;;;;;;;12.04;100.00;165610.72;5049564;28;20107;-68
2022/01/01 10:08:29;;;;;;;1999.90;999.90;;;;;;;12.15;100.00;165641.06;5050816;28;20073;-68
2022/01/01 10:10:56;;;;;;;1999.90;999.90;;;;;;;12.08;100.00;165621.78;5051334;28;20527;-68
2022/01/01 10:13:33;;;;;;;1999.90;999.90;;;;;;;12.26;100.00;165670.03;5049136;28;20072;-68
2022/01/01 10:16:03;;;;;;;1999.90;999.90;;;;;;;11.77;100.00;165539.00;5051051;28;20083;-68
2022/01/01 10:18:35;;;;;;;1999.90;999.90;;;;;;;11.86;100.00;165563.81;5050193;28;20064;-68
2022/01/01 10:21:15;;;;;;;1999.90;999.90;;;;;;;12.18;100.00;165647.94;5049687;28;20053;-68
2022/01/01 10:23:45;;;;;;;1999.90;999.90;;;;;;;11.96;100.00;165590.06;5051310;28;20080;-68
2022/01/01 10:29:12;;;;;;;1999.90;999.90;;;;;;;11.74;100.00;165532.09;5047986;28;20076;-68
2022/01/01 10:31:58;;;;;;;1999.90;999.90;;;;;;;12.01;100.00;165602.47;5050806;28;20110;-68
2022/01/01 10:34:31;;;;;;;1999.90;999.90;;;;;;;11.74;100.00;165530.75;5050415;28;20055;-68
2022/01/01 10:36:59;;;;;;;1999.90;999.90;;;;;;;11.60;100.00;165493.53;5048078;28;20052;-68
2022/01/01 10:39:26;;;;;;;1999.90;999.90;;;;;;;11.56;100.00;165483.88;5050586;28;20334;-68
2022/01/01 10:41:58;;;;;;;1999.90;999.90;;;;;;;11.81;100.00;165551.41;5050866;28;20084;-68
2022/01/01 10:44:34;;;;;;;1999.90;999.90;;;;;;;11.65;100.00;165505.94;5049541;28;20107;-68
2022/01/01 10:47:17;;;;;;;1999.90;999.90;;;;;;;11.28;100.00;165409.50;5050007;28;20426;-68
2022/01/01 10:52:27;;;;;;;1999.90;999.90;;;;;;;11.72;100.00;165526.59;5048805;28;20060;-68